Local area metar reports


Our local metar:
KGOO 121915Z AUTO VRB03KT M1/4SM FG OVC001 10/10 A3031 RMK A01

Decoded:

station                        KGOO
observed_date Thu, 12 Dec 2019 19:15:00 +0000
observed_age 29 min. ago
wind_speed 3
wind_direction_varies 1
visibility_report Less than 0.25 mile
present_weather_report Fog
clouds_report Overcast sky at 100 feet
cloud_height 100
temperature_f 50
dew_point_f 50
humidity 100
wind_chill 8
wind_chill_f 47
barometer 30.31
remarks A01

Auburn metar:
KAUN 121915Z AUTO 16005KT 1/2SM BR OVC003 12/12 A3032 RMK A01

Decoded:

station                        KAUN
observed_date Thu, 12 Dec 2019 19:15:00 +0000
observed_age 29 min. ago
wind_speed 5
wind_direction 160
wind_direction_label SSE
visibility_report 0.5 mile
present_weather_report Mist
clouds_report Overcast sky at 300 feet
cloud_height 300
temperature_f 54
dew_point_f 54
humidity 100
barometer 30.32
remarks A01

Lincoln metar:
KLHM 121935Z AUTO 16007KT 10SM OVC017 15/10 A3030 RMK AO1

Decoded:

station                        KLHM
observed_date Thu, 12 Dec 2019 19:35:00 +0000
observed_age 9 min. ago
wind_speed 7
wind_direction 160
wind_direction_label SSE
visibility_report 10 miles
present_weather_report Dry
clouds_report Overcast sky at 1700 feet
cloud_height 1700
temperature_f 59
dew_point_f 50
humidity 72
barometer 30.3
remarks AO1